Biggs, Illinois
Current Conditions -  °F | °C
As of 2:15 AM on Thursday 27 Nov 2014 (Local Time) from KAAA Reporting Station
Overcast Overcast  
Wind Chill: 24°   Ceiling: 10000
Heat Index: 24°   Visibility: 7mi
Dew Point: 20°   Wind: 0mph
Humidity: 87%   Direction: NA
Pressure: 30.3"   Gusts: NA
Location:  40.2326°N, 89.8458°W
Report Text: KAAA 270815Z AUTO 00000KT 7SM OVC100 M05/M06 A3030 RMK AO2 T10461065
Loading
Personal Weather Stations






























Interactive Weather Map New forecast layout! Learn more

10-Day Weather Forecast

Advertisements
Track Severe Weather on mobile